EmailTwitter


Observations de surface / France / LFBD (07510)

Régions: Québec | Canada | États-Unis | Europe | France | UK | Ailleurs
Station
Affichage
Infos & localisation pour LFBD (07510) | Aide pour décoder les METARs

Observations prises le 2020-04-05 à 11H30 UTC à BORDEAUX/MERIGNA, FR (LFBD)

Température: 20.0 Celsius

Point de rosée: 7.0 Celsius

Humidité relative: 43%

Vents: Est-sud-est à 22 km/h ou 12 noeuds.

Pression au niveau moyen de la mer: 101.50 kilopascals.

Observation METAR:

LFBD 051130Z AUTO 11012KT CAVOK 20/07 Q1015 NOSIG=